Airport Weather Around the Area


KLVN - Mpls/Airlake, Lakeville, MN, USA
Distance from station: S 5mi, 8km
Updated: Wed, 16-Aug-2017 10:33pm CDT
Mostly Cloudy
Mostly Cloudy
 Wind from ESE
Wind: ESE 3 mph , 6 km/h
Temperature: 70°F , 21°C
Dew Point: 70°F , 21°C
Humidity: 100%
Barometer: 29.61 inHg , 1002.7 hPa
Clouds: Mostly Cloudy
Visibility: 10 miles , 16 km
Cloud details: Partly Cloudy 1200 ft
Partly Cloudy 3200 ft
Mostly Cloudy 5000 ft
2017/08/17 03:33 KLVN 170333Z AUTO 11003KT 10SM SCT012 SCT032 BKN050 21/21 A2961 RMK AO2
KMSP - MSP International, Minneapolis, MN, USA
Distance from station: N 13mi, 20km
Updated: Wed, 16-Aug-2017 10:53pm CDT
Overcast
Overcast
 Wind from E
Wind: E 9 mph , 15 km/h
Temperature: 72°F , 22°C
Dew Point: 68°F , 20°C
Humidity: 88%
Barometer: 29.60 inHg , 1002.4 hPa
Clouds: Overcast
Visibility: 10 miles , 16 km
Cloud details: Overcast 1300 ft
2017/08/17 03:53 KMSP 170353Z 08008KT 10SM OVC013 22/20 A2960 RMK AO2 RAE03 SLP019 P0001 T02170200
 
KSGS - South St Paul/Fleming Field, So. St. Paul, MN, USA
Distance from station: NE 14mi, 22km
Updated: Wed, 16-Aug-2017 10:53pm CDT
Overcast
Overcast
 Wind from ESE
Wind: ESE 5 mph , 7 km/h
Temperature: 72°F , 22°C
Dew Point: 70°F , 21°C
Humidity: 94%
Barometer: 29.60 inHg , 1002.4 hPa
Clouds: Overcast
Visibility: 10 miles , 16 km
Cloud details: Mostly Cloudy 600 ft
Overcast 1800 ft
2017/08/17 03:53 KSGS 170353Z AUTO 11004KT 10SM BKN006 OVC018 22/21 A2960 RMK AO2 P0001 T02150214
KFCM - Mpls/Flying Cloud, Eden Prairie, MN, USA
Distance from station: NW 15mi, 24km
Updated: Wed, 16-Aug-2017 10:53pm CDT
Light rain, Mist, Overcast
Light rain, Mist, Overcast
 Wind from E
Wind: E 9 mph , 15 km/h
Temperature: 72°F , 22°C
Dew Point: 70°F , 21°C
Humidity: 94%
Barometer: 29.58 inHg , 1001.7 hPa
Summary: Light rain, Mist
Clouds: Overcast
Visibility: 5 miles , 8 km
Cloud details: Mostly Cloudy 800 ft
Mostly Cloudy 1500 ft
Overcast 3700 ft
2017/08/17 03:53 KFCM 170353Z 08008KT 5SM -RA BR BKN008 BKN015 OVC037 22/21 A2958 RMK AO2 RAB29 SLP011 P0001 T02220211
 
KSTP - St. Paul Downtown, St. Paul, MN, USA
Distance from station: NNE 18mi, 29km
Updated: Wed, 16-Aug-2017 10:53pm CDT
Overcast
Overcast
 Wind from ESE
Wind: ESE 5 mph , 7 km/h
Temperature: 70°F , 21°C
Dew Point: 70°F , 21°C
Humidity: 100%
Barometer: 29.61 inHg , 1002.7 hPa
Clouds: Overcast
Visibility: 10 miles , 16 km
Cloud details: Mostly Cloudy 1100 ft
Mostly Cloudy 1600 ft
Overcast 2300 ft
2017/08/17 03:53 KSTP 170353Z AUTO 12004KT 10SM BKN011 BKN016 OVC023 21/21 A2961 RMK AO2 RAE32 SLP020 P0011 T02110206 TSNO
KSYN - Stanton, Minnesota, USA
Distance from station: SE 18mi, 29km
Updated: Wed, 16-Aug-2017 10:53pm CDT
Overcast
Overcast
 Wind from SSE
Wind: SSE 10 mph , 17 km/h, Gust: 16 mph , 26 km/h
Temperature: 73°F , 23°C
Dew Point: 70°F , 21°C
Humidity: 89%
Barometer: 29.60 inHg , 1002.4 hPa
Clouds: Overcast
Visibility: 10 miles , 16 km
Cloud details: Partly Cloudy 2500 ft
Partly Cloudy 3800 ft
Overcast 5500 ft
2017/08/17 03:53 KSYN 170353Z AUTO 15009G14KT 10SM SCT025 SCT038 OVC055 23/21 A2960 RMK AO2 T02270207
 
KMIC - Mlps/Crystal, MN, USA
Distance from station: NNW 26mi, 42km
Updated: Wed, 16-Aug-2017 10:53pm CDT
Overcast
Overcast
 Wind from ENE
Wind: ENE 9 mph , 15 km/h
Temperature: 66°F , 19°C
Dew Point: 63°F , 17°C
Humidity: 88%
Barometer: 29.60 inHg , 1002.4 hPa
Clouds: Overcast
Visibility: 10 miles , 16 km
Cloud details: Partly Cloudy 1300 ft
Overcast 2200 ft
2017/08/17 03:53 KMIC 170353Z AUTO 06008KT 10SM SCT013 OVC022 19/17 A2960 RMK AO2 RAE16 SLP019 P0001 T01940172 TSNO
KFBL - Faribault Municipal, MN, USA
Distance from station: S 27mi, 43km
Updated: Wed, 16-Aug-2017 10:54pm CDT
Mostly Cloudy
Mostly Cloudy
 Wind from SSE
Wind: SSE 10 mph , 17 km/h
Temperature: 72°F , 22°C
Dew Point: 70°F , 21°C
Humidity: 94%
Barometer: 29.61 inHg , 1002.7 hPa
Clouds: Mostly Cloudy
Visibility: 10 miles , 16 km
Cloud details: Partly Cloudy 2000 ft
Mostly Cloudy 7000 ft
2017/08/17 03:54 KFBL 170354Z AUTO 16009KT 10SM SCT020 BKN070 22/21 A2961 RMK AO2 P0001
 
K21D - Lake Elmo, MN, USA
Distance from station: NE 27mi, 44km
Updated: Wed, 16-Aug-2017 10:51pm CDT
Overcast
Overcast
 Wind from ESE
Wind: ESE 16 mph , 26 km/h
Temperature: 70°F , 21°C
Dew Point: 68°F , 20°C
Humidity: 94%
Barometer: 29.63 inHg , 1003.4 hPa
Clouds: Overcast
Visibility: 10 miles , 16 km
Cloud details: Mostly Cloudy 1000 ft
Overcast 1800 ft
2017/08/17 03:51 K21D 170351Z AUTO 11014KT 10SM BKN010 OVC018 21/20 A2963 RMK AO2 P0013
KANE - Anoka Co./Blaine, MN, USA
Distance from station: 0 30mi, 48km
Updated: Wed, 16-Aug-2017 10:54pm CDT
Mostly Cloudy
Mostly Cloudy
 Wind from E
Wind: E 8 mph , 13 km/h
Temperature: 68°F , 20°C
Dew Point: 66°F , 19°C
Humidity: 94%
Barometer: 29.62 inHg , 1003 hPa
Clouds: Mostly Cloudy
Visibility: 10 miles , 16 km
Cloud details: Partly Cloudy 1000 ft
Partly Cloudy 1800 ft
Mostly Cloudy 2500 ft
2017/08/17 03:54 KANE 170354Z AUTO 09007KT 10SM SCT010 SCT018 BKN025 20/19 A2962 RMK AO2 P0010
 
KRGK - Red Wing, MN, USA
Distance from station: ESE 37mi, 60km
Updated: Wed, 16-Aug-2017 10:35pm CDT
Partly Cloudy
Partly Cloudy
 
Temperature: 72°F , 22°C
Dew Point: 70°F , 21°C
Humidity: 94%
Barometer: 29.63 inHg , 1003.4 hPa
Clouds: Partly Cloudy
Visibility: 10 miles , 16 km
Cloud details: Partly Cloudy 2600 ft
Partly Cloudy 3400 ft
2017/08/17 03:35 KRGK 170335Z AUTO 10SM SCT026 SCT034 22/21 A2963 RMK AO2